sensor_id;sensor_type;location;lat;lon;timestamp;noise_LAeq;noise_LA_min;noise_LA_max;noise_LA01;noise_LA95
70740;Laerm;58330;51.888;11.052;2023-08-06T00:01:03;57.81;56.84;58.73;;
70740;Laerm;58330;51.888;11.052;2023-08-06T00:03:30;57.81;56.68;58.76;;
70740;Laerm;58330;51.888;11.052;2023-08-06T00:05:56;57.82;56.81;58.81;;
70740;Laerm;58330;51.888;11.052;2023-08-06T00:08:22;57.81;56.81;58.83;;
70740;Laerm;58330;51.888;11.052;2023-08-06T00:10:49;57.81;56.77;58.83;;
70740;Laerm;58330;51.888;11.052;2023-08-06T00:13:16;57.82;56.53;58.82;;
70740;Laerm;58330;51.888;11.052;2023-08-06T00:15:43;57.81;56.77;58.85;;
70740;Laerm;58330;51.888;11.052;2023-08-06T00:18:09;57.81;56.88;58.72;;
70740;Laerm;58330;51.888;11.052;2023-08-06T00:20:38;57.81;56.73;58.78;;
70740;Laerm;58330;51.888;11.052;2023-08-06T00:23:04;57.81;56.72;58.78;;
70740;Laerm;58330;51.888;11.052;2023-08-06T00:25:31;57.82;56.69;58.76;;
70740;Laerm;58330;51.888;11.052;2023-08-06T00:27:57;57.81;56.95;58.75;;
70740;Laerm;58330;51.888;11.052;2023-08-06T00:30:24;57.80;56.80;58.72;;
70740;Laerm;58330;51.888;11.052;2023-08-06T00:32:51;57.81;56.73;58.93;;
70740;Laerm;58330;51.888;11.052;2023-08-06T00:35:17;57.80;56.91;58.88;;
70740;Laerm;58330;51.888;11.052;2023-08-06T00:37:43;57.80;56.67;58.75;;
70740;Laerm;58330;51.888;11.052;2023-08-06T00:40:10;57.81;56.67;58.81;;
70740;Laerm;58330;51.888;11.052;2023-08-06T00:42:36;57.79;56.80;58.83;;
70740;Laerm;58330;51.888;11.052;2023-08-06T00:45:02;57.79;56.83;58.79;;
70740;Laerm;58330;51.888;11.052;2023-08-06T00:47:30;57.80;56.66;58.85;;
70740;Laerm;58330;51.888;11.052;2023-08-06T00:49:57;57.80;56.87;58.80;;
70740;Laerm;58330;51.888;11.052;2023-08-06T00:52:23;57.78;56.50;58.80;;
70740;Laerm;58330;51.888;11.052;2023-08-06T00:54:49;57.78;56.72;58.81;;
70740;Laerm;58330;51.888;11.052;2023-08-06T00:57:16;57.78;56.62;58.76;;
70740;Laerm;58330;51.888;11.052;2023-08-06T00:59:43;57.78;56.66;58.73;;
70740;Laerm;58330;51.888;11.052;2023-08-06T01:02:10;57.78;56.64;58.68;;
70740;Laerm;58330;51.888;11.052;2023-08-06T01:04:37;57.77;56.68;58.71;;
70740;Laerm;58330;51.888;11.052;2023-08-06T01:07:08;57.77;56.73;58.85;;
70740;Laerm;58330;51.888;11.052;2023-08-06T01:09:41;57.78;56.62;58.72;;
70740;Laerm;58330;51.888;11.052;2023-08-06T01:12:13;57.77;56.64;58.71;;
70740;Laerm;58330;51.888;11.052;2023-08-06T01:14:46;57.76;56.53;58.76;;
70740;Laerm;58330;51.888;11.052;2023-08-06T01:17:14;57.75;56.38;58.65;;
70740;Laerm;58330;51.888;11.052;2023-08-06T01:19:41;57.75;56.78;58.78;;
70740;Laerm;58330;51.888;11.052;2023-08-06T01:22:09;57.74;56.61;58.78;;
70740;Laerm;58330;51.888;11.052;2023-08-06T01:24:35;57.74;56.69;58.72;;
70740;Laerm;58330;51.888;11.052;2023-08-06T01:27:03;57.74;56.62;58.71;;
70740;Laerm;58330;51.888;11.052;2023-08-06T01:29:31;57.74;56.40;58.70;;
70740;Laerm;58330;51.888;11.052;2023-08-06T01:32:00;57.74;56.70;58.90;;
70740;Laerm;58330;51.888;11.052;2023-08-06T01:34:28;57.74;56.56;58.69;;
70740;Laerm;58330;51.888;11.052;2023-08-06T01:36:55;57.73;56.69;58.71;;
70740;Laerm;58330;51.888;11.052;2023-08-06T01:39:23;57.73;56.77;58.76;;
70740;Laerm;58330;51.888;11.052;2023-08-06T01:41:49;57.72;56.67;58.82;;
70740;Laerm;58330;51.888;11.052;2023-08-06T01:44:16;57.72;56.74;58.76;;
70740;Laerm;58330;51.888;11.052;2023-08-06T01:46:42;57.70;56.60;58.65;;
70740;Laerm;58330;51.888;11.052;2023-08-06T01:49:09;57.70;56.73;58.67;;
70740;Laerm;58330;51.888;11.052;2023-08-06T01:51:35;57.68;56.61;58.55;;
70740;Laerm;58330;51.888;11.052;2023-08-06T01:54:02;57.65;56.53;58.64;;
70740;Laerm;58330;51.888;11.052;2023-08-06T01:56:29;57.61;56.38;58.61;;
70740;Laerm;58330;51.888;11.052;2023-08-06T01:58:56;57.50;56.31;59.13;;
70740;Laerm;58330;51.888;11.052;2023-08-06T02:01:22;57.47;56.41;58.68;;
70740;Laerm;58330;51.888;11.052;2023-08-06T02:03:49;57.46;56.45;58.63;;
70740;Laerm;58330;51.888;11.052;2023-08-06T02:06:15;57.45;56.45;58.41;;
70740;Laerm;58330;51.888;11.052;2023-08-06T02:08:41;57.45;56.53;58.40;;
70740;Laerm;58330;51.888;11.052;2023-08-06T02:11:08;57.46;56.28;58.44;;
70740;Laerm;58330;51.888;11.052;2023-08-06T02:13:35;57.46;56.37;58.49;;
70740;Laerm;58330;51.888;11.052;2023-08-06T02:16:02;57.46;56.48;58.34;;
70740;Laerm;58330;51.888;11.052;2023-08-06T02:18:28;57.46;56.40;58.54;;
70740;Laerm;58330;51.888;11.052;2023-08-06T02:20:55;57.46;56.55;58.47;;
70740;Laerm;58330;51.888;11.052;2023-08-06T02:23:22;57.46;56.41;58.45;;
70740;Laerm;58330;51.888;11.052;2023-08-06T02:25:48;57.47;56.47;58.41;;
70740;Laerm;58330;51.888;11.052;2023-08-06T02:28:22;57.47;56.33;58.46;;
70740;Laerm;58330;51.888;11.052;2023-08-06T02:30:50;57.47;56.46;58.43;;
70740;Laerm;58330;51.888;11.052;2023-08-06T02:33:17;57.46;56.25;58.38;;
70740;Laerm;58330;51.888;11.052;2023-08-06T02:35:43;57.48;56.33;58.43;;
70740;Laerm;58330;51.888;11.052;2023-08-06T02:38:09;57.48;56.51;58.56;;
70740;Laerm;58330;51.888;11.052;2023-08-06T02:40:36;57.48;56.35;58.47;;
70740;Laerm;58330;51.888;11.052;2023-08-06T02:43:03;57.49;56.46;58.57;;
70740;Laerm;58330;51.888;11.052;2023-08-06T02:45:30;57.48;56.20;58.38;;
70740;Laerm;58330;51.888;11.052;2023-08-06T02:47:57;57.48;56.28;58.50;;
70740;Laerm;58330;51.888;11.052;2023-08-06T02:50:24;57.50;56.36;58.65;;
70740;Laerm;58330;51.888;11.052;2023-08-06T02:52:50;57.50;56.39;58.43;;
70740;Laerm;58330;51.888;11.052;2023-08-06T02:55:16;57.50;56.51;58.55;;
70740;Laerm;58330;51.888;11.052;2023-08-06T02:57:42;57.49;56.54;58.46;;
70740;Laerm;58330;51.888;11.052;2023-08-06T03:00:09;57.49;56.47;58.49;;
70740;Laerm;58330;51.888;11.052;2023-08-06T03:02:36;57.49;56.15;58.55;;
70740;Laerm;58330;51.888;11.052;2023-08-06T03:05:04;57.48;56.24;58.40;;
70740;Laerm;58330;51.888;11.052;2023-08-06T03:07:31;57.48;56.53;58.52;;
70740;Laerm;58330;51.888;11.052;2023-08-06T03:10:01;57.48;56.33;58.42;;
70740;Laerm;58330;51.888;11.052;2023-08-06T03:12:27;57.49;56.39;58.52;;
70740;Laerm;58330;51.888;11.052;2023-08-06T03:14:53;57.48;56.45;58.47;;
70740;Laerm;58330;51.888;11.052;2023-08-06T03:17:20;57.50;56.52;58.70;;
70740;Laerm;58330;51.888;11.052;2023-08-06T03:19:46;57.49;56.51;58.33;;
70740;Laerm;58330;51.888;11.052;2023-08-06T03:22:13;57.48;56.47;58.47;;
70740;Laerm;58330;51.888;11.052;2023-08-06T03:24:40;57.49;56.50;58.58;;
70740;Laerm;58330;51.888;11.052;2023-08-06T03:27:06;57.48;56.21;58.44;;
70740;Laerm;58330;51.888;11.052;2023-08-06T03:29:32;57.49;56.53;58.48;;
70740;Laerm;58330;51.888;11.052;2023-08-06T03:31:58;57.48;56.54;58.53;;
70740;Laerm;58330;51.888;11.052;2023-08-06T03:34:25;57.48;56.49;58.59;;
70740;Laerm;58330;51.888;11.052;2023-08-06T03:36:51;57.49;56.30;58.42;;
70740;Laerm;58330;51.888;11.052;2023-08-06T03:39:19;57.48;56.40;58.34;;
70740;Laerm;58330;51.888;11.052;2023-08-06T03:41:45;57.49;56.40;58.45;;
70740;Laerm;58330;51.888;11.052;2023-08-06T03:44:12;57.48;56.35;58.45;;
70740;Laerm;58330;51.888;11.052;2023-08-06T03:46:38;57.48;56.43;58.60;;
70740;Laerm;58330;51.888;11.052;2023-08-06T03:49:04;57.49;56.51;58.56;;
70740;Laerm;58330;51.888;11.052;2023-08-06T03:51:30;57.48;56.50;58.49;;
70740;Laerm;58330;51.888;11.052;2023-08-06T03:53:57;57.49;56.13;58.39;;
70740;Laerm;58330;51.888;11.052;2023-08-06T03:56:24;57.48;56.31;58.32;;
70740;Laerm;58330;51.888;11.052;2023-08-06T03:58:51;57.48;56.54;58.54;;
70740;Laerm;58330;51.888;11.052;2023-08-06T04:01:17;57.48;56.35;58.60;;
70740;Laerm;58330;51.888;11.052;2023-08-06T04:03:43;57.48;56.46;58.49;;
70740;Laerm;58330;51.888;11.052;2023-08-06T04:06:09;57.47;56.50;58.46;;
70740;Laerm;58330;51.888;11.052;2023-08-06T04:08:36;57.49;56.43;58.52;;
70740;Laerm;58330;51.888;11.052;2023-08-06T04:11:02;57.47;56.54;58.39;;
70740;Laerm;58330;51.888;11.052;2023-08-06T04:13:30;57.48;56.43;58.44;;
70740;Laerm;58330;51.888;11.052;2023-08-06T04:16:00;57.48;56.44;58.47;;
70740;Laerm;58330;51.888;11.052;2023-08-06T04:18:26;57.48;56.26;58.40;;
70740;Laerm;58330;51.888;11.052;2023-08-06T04:20:52;57.48;56.47;58.53;;
70740;Laerm;58330;51.888;11.052;2023-08-06T04:23:20;57.48;56.43;58.47;;
70740;Laerm;58330;51.888;11.052;2023-08-06T04:25:46;57.48;56.39;58.51;;
70740;Laerm;58330;51.888;11.052;2023-08-06T04:28:13;57.48;56.56;58.57;;
70740;Laerm;58330;51.888;11.052;2023-08-06T04:30:40;57.47;56.42;58.60;;
70740;Laerm;58330;51.888;11.052;2023-08-06T04:33:07;57.48;56.42;58.42;;
70740;Laerm;58330;51.888;11.052;2023-08-06T04:35:33;57.47;56.38;58.54;;
70740;Laerm;58330;51.888;11.052;2023-08-06T04:37:59;57.47;56.24;58.36;;
70740;Laerm;58330;51.888;11.052;2023-08-06T04:40:26;57.47;56.41;58.43;;
70740;Laerm;58330;51.888;11.052;2023-08-06T04:42:52;57.47;56.42;58.40;;
70740;Laerm;58330;51.888;11.052;2023-08-06T04:45:19;57.47;56.46;58.54;;
70740;Laerm;58330;51.888;11.052;2023-08-06T04:47:46;57.47;56.49;58.47;;
70740;Laerm;58330;51.888;11.052;2023-08-06T04:50:13;57.47;56.35;58.46;;
70740;Laerm;58330;51.888;11.052;2023-08-06T04:52:39;57.47;56.31;58.56;;
70740;Laerm;58330;51.888;11.052;2023-08-06T04:55:08;57.47;56.32;58.51;;
70740;Laerm;58330;51.888;11.052;2023-08-06T04:57:35;57.47;56.34;58.45;;
70740;Laerm;58330;51.888;11.052;2023-08-06T05:00:01;57.47;56.36;58.51;;
70740;Laerm;58330;51.888;11.052;2023-08-06T05:02:27;57.47;56.49;58.40;;
70740;Laerm;58330;51.888;11.052;2023-08-06T05:04:55;57.48;56.46;58.72;;
70740;Laerm;58330;51.888;11.052;2023-08-06T05:07:21;57.47;56.44;58.48;;
70740;Laerm;58330;51.888;11.052;2023-08-06T05:09:48;57.46;56.41;58.52;;
70740;Laerm;58330;51.888;11.052;2023-08-06T05:12:14;57.47;56.38;58.47;;
70740;Laerm;58330;51.888;11.052;2023-08-06T05:14:40;57.46;56.50;58.41;;
70740;Laerm;58330;51.888;11.052;2023-08-06T05:17:07;57.46;56.43;58.53;;
70740;Laerm;58330;51.888;11.052;2023-08-06T05:19:33;57.47;56.38;58.51;;
70740;Laerm;58330;51.888;11.052;2023-08-06T05:22:00;57.47;56.41;58.50;;
70740;Laerm;58330;51.888;11.052;2023-08-06T05:24:27;57.46;56.46;58.61;;
70740;Laerm;58330;51.888;11.052;2023-08-06T05:26:53;57.47;56.41;58.48;;
70740;Laerm;58330;51.888;11.052;2023-08-06T05:29:19;57.46;56.41;58.52;;
70740;Laerm;58330;51.888;11.052;2023-08-06T05:31:45;57.47;56.50;58.37;;
70740;Laerm;58330;51.888;11.052;2023-08-06T05:34:12;57.45;56.49;58.50;;
70740;Laerm;58330;51.888;11.052;2023-08-06T05:36:38;57.46;56.44;58.58;;
70740;Laerm;58330;51.888;11.052;2023-08-06T05:39:06;57.46;56.19;58.48;;
70740;Laerm;58330;51.888;11.052;2023-08-06T05:41:32;57.45;56.36;58.46;;
70740;Laerm;58330;51.888;11.052;2023-08-06T05:43:58;57.45;56.50;58.35;;
70740;Laerm;58330;51.888;11.052;2023-08-06T05:46:24;57.46;56.16;58.38;;
70740;Laerm;58330;51.888;11.052;2023-08-06T05:48:51;57.45;56.40;58.61;;
70740;Laerm;58330;51.888;11.052;2023-08-06T05:51:17;57.45;56.26;58.36;;
70740;Laerm;58330;51.888;11.052;2023-08-06T05:53:44;57.45;56.17;58.41;;
70740;Laerm;58330;51.888;11.052;2023-08-06T05:56:13;57.43;56.19;58.39;;
70740;Laerm;58330;51.888;11.052;2023-08-06T05:58:40;57.43;56.32;58.41;;
70740;Laerm;58330;51.888;11.052;2023-08-06T06:01:06;57.43;56.46;58.44;;
70740;Laerm;58330;51.888;11.052;2023-08-06T06:03:32;57.43;56.13;58.47;;
70740;Laerm;58330;51.888;11.052;2023-08-06T06:05:59;57.41;56.35;58.36;;
70740;Laerm;58330;51.888;11.052;2023-08-06T06:08:26;57.41;56.42;58.33;;
70740;Laerm;58330;51.888;11.052;2023-08-06T06:10:53;57.42;56.44;58.34;;
70740;Laerm;58330;51.888;11.052;2023-08-06T06:13:20;57.42;56.34;58.33;;
70740;Laerm;58330;51.888;11.052;2023-08-06T06:15:47;69.75;-82.39;96.23;;
70740;Laerm;58330;51.888;11.052;2023-08-06T06:18:13;72.55;-86.58;96.23;;
70740;Laerm;58330;51.888;11.052;2023-08-06T06:20:39;57.23;51.02;65.46;;
70740;Laerm;58330;51.888;11.052;2023-08-06T06:23:05;56.43;39.44;63.34;;
70740;Laerm;58330;51.888;11.052;2023-08-06T06:25:32;56.13;37.55;61.50;;
70740;Laerm;58330;51.888;11.052;2023-08-06T06:27:58;55.94;42.78;61.82;;
70740;Laerm;58330;51.888;11.052;2023-08-06T06:30:25;57.24;50.74;63.72;;
70740;Laerm;58330;51.888;11.052;2023-08-06T06:32:52;57.09;38.74;64.30;;
70740;Laerm;58330;51.888;11.052;2023-08-06T06:35:18;56.94;48.73;63.56;;
70740;Laerm;58330;51.888;11.052;2023-08-06T06:37:44;56.96;52.15;64.32;;
70740;Laerm;58330;51.888;11.052;2023-08-06T06:40:11;56.28;39.91;62.04;;
70740;Laerm;58330;51.888;11.052;2023-08-06T06:42:37;56.72;46.19;63.12;;
70740;Laerm;58330;51.888;11.052;2023-08-06T06:45:03;57.51;40.05;62.67;;
70740;Laerm;58330;51.888;11.052;2023-08-06T06:47:31;57.35;40.76;64.00;;
70740;Laerm;58330;51.888;11.052;2023-08-06T06:49:57;57.38;42.68;64.60;;
70740;Laerm;58330;51.888;11.052;2023-08-06T06:52:24;57.48;40.88;61.79;;
70740;Laerm;58330;51.888;11.052;2023-08-06T06:54:50;106.24;53.06;113.16;;
70740;Laerm;58330;51.888;11.052;2023-08-06T06:57:16;111.68;65.76;113.57;;
70740;Laerm;58330;51.888;11.052;2023-08-06T06:59:42;105.89;-331.32;113.28;;
70740;Laerm;58330;51.888;11.052;2023-08-06T07:02:09;88.01;-329.56;106.60;;
70740;Laerm;58330;51.888;11.052;2023-08-06T07:04:37;73.01;-323.53;92.58;;
70740;Laerm;58330;51.888;11.052;2023-08-06T07:07:03;76.31;-331.32;97.39;;
70740;Laerm;58330;51.888;11.052;2023-08-06T07:09:30;5.00;5.00;5.00;;
70740;Laerm;58330;51.888;11.052;2023-08-06T07:11:56;88.76;-11.71;109.72;;
70740;Laerm;58330;51.888;11.052;2023-08-06T07:14:24;85.03;-328.31;99.25;;
70740;Laerm;58330;51.888;11.052;2023-08-06T07:16:50;88.36;-325.88;99.24;;
70740;Laerm;58330;51.888;11.052;2023-08-06T07:19:16;71.74;-11.44;99.24;;
70740;Laerm;58330;51.888;11.052;2023-08-06T07:21:44;59.51;5.88;67.81;;
70740;Laerm;58330;51.888;11.052;2023-08-06T07:24:10;60.85;-8.36;68.46;;
70740;Laerm;58330;51.888;11.052;2023-08-06T07:26:37;62.54;-9.84;70.52;;
70740;Laerm;58330;51.888;11.052;2023-08-06T07:29:04;61.11;51.42;65.75;;
70740;Laerm;58330;51.888;11.052;2023-08-06T07:31:30;68.57;-13.00;96.23;;
70740;Laerm;58330;51.888;11.052;2023-08-06T07:33:56;60.91;51.71;65.61;;
70740;Laerm;58330;51.888;11.052;2023-08-06T07:36:23;63.43;20.42;70.25;;
70740;Laerm;58330;51.888;11.052;2023-08-06T07:38:50;61.03;51.70;69.48;;
70740;Laerm;58330;51.888;11.052;2023-08-06T07:41:20;66.67;4.68;71.09;;
70740;Laerm;58330;51.888;11.052;2023-08-06T07:43:47;62.75;50.82;69.92;;
70740;Laerm;58330;51.888;11.052;2023-08-06T07:46:13;61.14;52.51;65.84;;
70740;Laerm;58330;51.888;11.052;2023-08-06T07:48:39;62.47;-6.78;68.33;;
70740;Laerm;58330;51.888;11.052;2023-08-06T07:51:06;60.40;-1.75;67.94;;
70740;Laerm;58330;51.888;11.052;2023-08-06T07:53:32;61.67;51.55;65.93;;
70740;Laerm;58330;51.888;11.052;2023-08-06T07:55:59;105.69;55.93;114.07;;
70740;Laerm;58330;51.888;11.052;2023-08-06T07:58:27;110.64;103.95;112.41;;
70740;Laerm;58330;51.888;11.052;2023-08-06T08:00:54;111.59;105.58;112.50;;
70740;Laerm;58330;51.888;11.052;2023-08-06T08:03:21;111.60;-327.34;113.63;;
70740;Laerm;58330;51.888;11.052;2023-08-06T08:05:47;5.00;5.00;5.00;;
70740;Laerm;58330;51.888;11.052;2023-08-06T08:08:13;5.00;5.00;5.00;;
70740;Laerm;58330;51.888;11.052;2023-08-06T08:10:40;5.00;5.00;5.00;;
70740;Laerm;58330;51.888;11.052;2023-08-06T08:13:08;5.00;5.00;5.00;;
70740;Laerm;58330;51.888;11.052;2023-08-06T08:15:35;5.00;5.00;5.00;;
70740;Laerm;58330;51.888;11.052;2023-08-06T08:18:01;5.00;5.00;5.00;;
70740;Laerm;58330;51.888;11.052;2023-08-06T08:20:27;5.00;5.00;5.00;;
70740;Laerm;58330;51.888;11.052;2023-08-06T08:22:57;5.00;5.00;5.00;;
70740;Laerm;58330;51.888;11.052;2023-08-06T08:25:23;5.00;5.00;5.00;;
70740;Laerm;58330;51.888;11.052;2023-08-06T08:27:49;51.03;5.00;85.64;;
70740;Laerm;58330;51.888;11.052;2023-08-06T08:30:17;30.47;29.21;31.62;;
70740;Laerm;58330;51.888;11.052;2023-08-06T08:32:43;30.44;29.18;32.37;;
70740;Laerm;58330;51.888;11.052;2023-08-06T08:35:09;30.48;29.19;31.95;;
70740;Laerm;58330;51.888;11.052;2023-08-06T08:37:37;30.68;29.44;34.21;;
70740;Laerm;58330;51.888;11.052;2023-08-06T08:40:04;30.84;29.64;32.00;;
70740;Laerm;58330;51.888;11.052;2023-08-06T08:42:30;30.82;29.30;32.38;;
70740;Laerm;58330;51.888;11.052;2023-08-06T08:44:57;30.85;29.34;33.78;;
70740;Laerm;58330;51.888;11.052;2023-08-06T08:47:24;30.95;29.72;34.37;;
70740;Laerm;58330;51.888;11.052;2023-08-06T08:49:52;31.01;29.75;32.70;;
70740;Laerm;58330;51.888;11.052;2023-08-06T08:52:20;56.28;29.92;63.23;;
70740;Laerm;58330;51.888;11.052;2023-08-06T08:54:47;56.46;-325.30;91.22;;
70740;Laerm;58330;51.888;11.052;2023-08-06T08:57:16;5.00;5.00;5.00;;
70740;Laerm;58330;51.888;11.052;2023-08-06T08:59:42;5.00;5.00;5.00;;
70740;Laerm;58330;51.888;11.052;2023-08-06T09:02:09;5.00;5.00;5.00;;
70740;Laerm;58330;51.888;11.052;2023-08-06T09:04:38;5.00;5.00;5.00;;
70740;Laerm;58330;51.888;11.052;2023-08-06T09:07:05;5.00;5.00;5.00;;
70740;Laerm;58330;51.888;11.052;2023-08-06T09:09:34;5.00;5.00;5.00;;
70740;Laerm;58330;51.888;11.052;2023-08-06T09:12:05;5.00;5.00;5.00;;
70740;Laerm;58330;51.888;11.052;2023-08-06T09:14:32;5.00;5.00;5.00;;
70740;Laerm;58330;51.888;11.052;2023-08-06T09:16:58;5.00;5.00;5.00;;
70740;Laerm;58330;51.888;11.052;2023-08-06T09:19:24;5.00;5.00;5.00;;
70740;Laerm;58330;51.888;11.052;2023-08-06T09:21:55;5.00;5.00;5.00;;
70740;Laerm;58330;51.888;11.052;2023-08-06T09:24:22;5.00;5.00;5.00;;
70740;Laerm;58330;51.888;11.052;2023-08-06T09:26:48;5.00;5.00;5.00;;
70740;Laerm;58330;51.888;11.052;2023-08-06T09:29:14;5.00;5.00;5.00;;
70740;Laerm;58330;51.888;11.052;2023-08-06T09:31:41;5.00;5.00;5.00;;
70740;Laerm;58330;51.888;11.052;2023-08-06T09:34:11;5.00;5.00;5.00;;
70740;Laerm;58330;51.888;11.052;2023-08-06T09:36:39;5.00;5.00;5.00;;
70740;Laerm;58330;51.888;11.052;2023-08-06T09:39:12;5.00;5.00;5.00;;
70740;Laerm;58330;51.888;11.052;2023-08-06T09:41:38;5.00;5.00;5.00;;
70740;Laerm;58330;51.888;11.052;2023-08-06T09:44:04;5.00;5.00;5.00;;
70740;Laerm;58330;51.888;11.052;2023-08-06T09:46:31;5.00;5.00;5.00;;
70740;Laerm;58330;51.888;11.052;2023-08-06T09:48:58;5.00;5.00;5.00;;
70740;Laerm;58330;51.888;11.052;2023-08-06T09:51:25;5.00;5.00;5.00;;
70740;Laerm;58330;51.888;11.052;2023-08-06T09:53:51;5.00;5.00;5.00;;
70740;Laerm;58330;51.888;11.052;2023-08-06T09:56:19;5.00;5.00;5.00;;
70740;Laerm;58330;51.888;11.052;2023-08-06T09:58:46;5.00;5.00;5.00;;
70740;Laerm;58330;51.888;11.052;2023-08-06T10:01:13;5.00;5.00;5.00;;
70740;Laerm;58330;51.888;11.052;2023-08-06T10:03:40;5.00;5.00;5.00;;
70740;Laerm;58330;51.888;11.052;2023-08-06T10:06:06;5.00;5.00;5.00;;
70740;Laerm;58330;51.888;11.052;2023-08-06T10:08:34;5.00;5.00;5.00;;
70740;Laerm;58330;51.888;11.052;2023-08-06T10:11:00;5.00;5.00;5.00;;
70740;Laerm;58330;51.888;11.052;2023-08-06T10:13:30;5.00;5.00;5.00;;
70740;Laerm;58330;51.888;11.052;2023-08-06T10:15:57;5.00;5.00;5.00;;
70740;Laerm;58330;51.888;11.052;2023-08-06T10:18:23;5.00;5.00;5.00;;
70740;Laerm;58330;51.888;11.052;2023-08-06T10:20:50;5.00;5.00;5.00;;
70740;Laerm;58330;51.888;11.052;2023-08-06T10:23:16;5.00;5.00;5.00;;
70740;Laerm;58330;51.888;11.052;2023-08-06T10:25:45;5.00;5.00;5.00;;
70740;Laerm;58330;51.888;11.052;2023-08-06T10:28:20;5.00;5.00;5.00;;
70740;Laerm;58330;51.888;11.052;2023-08-06T10:30:48;5.00;5.00;5.00;;
70740;Laerm;58330;51.888;11.052;2023-08-06T10:33:15;5.00;5.00;5.00;;
70740;Laerm;58330;51.888;11.052;2023-08-06T10:35:46;5.00;5.00;5.00;;
70740;Laerm;58330;51.888;11.052;2023-08-06T10:38:14;5.00;5.00;5.00;;
70740;Laerm;58330;51.888;11.052;2023-08-06T10:40:42;5.00;5.00;5.00;;
70740;Laerm;58330;51.888;11.052;2023-08-06T10:43:24;5.00;5.00;5.00;;
70740;Laerm;58330;51.888;11.052;2023-08-06T10:45:52;5.00;5.00;5.00;;
70740;Laerm;58330;51.888;11.052;2023-08-06T10:48:28;5.00;5.00;5.00;;
70740;Laerm;58330;51.888;11.052;2023-08-06T10:50:54;5.00;5.00;5.00;;
70740;Laerm;58330;51.888;11.052;2023-08-06T10:53:21;5.00;5.00;5.00;;
70740;Laerm;58330;51.888;11.052;2023-08-06T10:55:47;5.00;5.00;5.00;;
70740;Laerm;58330;51.888;11.052;2023-08-06T10:58:14;5.00;5.00;5.00;;
70740;Laerm;58330;51.888;11.052;2023-08-06T11:00:41;5.00;5.00;5.00;;
70740;Laerm;58330;51.888;11.052;2023-08-06T11:03:09;5.00;5.00;5.00;;
70740;Laerm;58330;51.888;11.052;2023-08-06T11:05:35;5.00;5.00;5.00;;
70740;Laerm;58330;51.888;11.052;2023-08-06T11:08:01;5.00;5.00;5.00;;
70740;Laerm;58330;51.888;11.052;2023-08-06T11:10:28;5.00;5.00;5.00;;
70740;Laerm;58330;51.888;11.052;2023-08-06T11:12:54;5.00;5.00;5.00;;
70740;Laerm;58330;51.888;11.052;2023-08-06T11:15:21;5.00;5.00;5.00;;
70740;Laerm;58330;51.888;11.052;2023-08-06T11:17:47;5.00;5.00;5.00;;
70740;Laerm;58330;51.888;11.052;2023-08-06T11:20:15;5.00;5.00;5.00;;
70740;Laerm;58330;51.888;11.052;2023-08-06T11:22:41;5.00;5.00;5.00;;
70740;Laerm;58330;51.888;11.052;2023-08-06T11:25:07;5.00;5.00;5.00;;
70740;Laerm;58330;51.888;11.052;2023-08-06T11:27:34;5.00;5.00;5.00;;
70740;Laerm;58330;51.888;11.052;2023-08-06T11:30:00;5.00;5.00;5.00;;
70740;Laerm;58330;51.888;11.052;2023-08-06T11:32:26;5.00;5.00;5.00;;
70740;Laerm;58330;51.888;11.052;2023-08-06T11:34:53;5.00;5.00;5.00;;
70740;Laerm;58330;51.888;11.052;2023-08-06T11:37:22;5.00;5.00;5.00;;
70740;Laerm;58330;51.888;11.052;2023-08-06T11:39:50;5.00;5.00;5.00;;
70740;Laerm;58330;51.888;11.052;2023-08-06T11:42:17;5.00;5.00;5.00;;
70740;Laerm;58330;51.888;11.052;2023-08-06T11:44:43;5.00;5.00;5.00;;
70740;Laerm;58330;51.888;11.052;2023-08-06T11:47:12;5.00;5.00;5.00;;
70740;Laerm;58330;51.888;11.052;2023-08-06T11:49:42;5.00;5.00;5.00;;
70740;Laerm;58330;51.888;11.052;2023-08-06T11:52:10;5.00;5.00;5.00;;
70740;Laerm;58330;51.888;11.052;2023-08-06T11:54:38;5.00;5.00;5.00;;
70740;Laerm;58330;51.888;11.052;2023-08-06T11:57:05;5.00;5.00;5.00;;
70740;Laerm;58330;51.888;11.052;2023-08-06T11:59:31;5.00;5.00;5.00;;
70740;Laerm;58330;51.888;11.052;2023-08-06T12:01:59;5.00;5.00;5.00;;
70740;Laerm;58330;51.888;11.052;2023-08-06T12:04:26;5.00;5.00;5.00;;
70740;Laerm;58330;51.888;11.052;2023-08-06T12:06:52;5.00;5.00;5.00;;
70740;Laerm;58330;51.888;11.052;2023-08-06T12:09:18;5.00;5.00;5.00;;
70740;Laerm;58330;51.888;11.052;2023-08-06T12:11:47;5.00;5.00;5.00;;
70740;Laerm;58330;51.888;11.052;2023-08-06T12:14:13;5.00;5.00;5.00;;
70740;Laerm;58330;51.888;11.052;2023-08-06T12:16:39;5.00;5.00;5.00;;
70740;Laerm;58330;51.888;11.052;2023-08-06T12:19:06;5.00;5.00;5.00;;
70740;Laerm;58330;51.888;11.052;2023-08-06T12:21:32;5.00;5.00;5.00;;
70740;Laerm;58330;51.888;11.052;2023-08-06T12:23:58;5.00;5.00;5.00;;
70740;Laerm;58330;51.888;11.052;2023-08-06T12:26:24;5.00;5.00;5.00;;
70740;Laerm;58330;51.888;11.052;2023-08-06T12:28:52;5.00;5.00;5.00;;
70740;Laerm;58330;51.888;11.052;2023-08-06T12:31:20;5.00;5.00;5.00;;
70740;Laerm;58330;51.888;11.052;2023-08-06T12:33:46;5.00;5.00;5.00;;
70740;Laerm;58330;51.888;11.052;2023-08-06T12:36:12;5.00;5.00;5.00;;
70740;Laerm;58330;51.888;11.052;2023-08-06T12:38:39;5.00;5.00;5.00;;
70740;Laerm;58330;51.888;11.052;2023-08-06T12:41:05;5.00;5.00;5.00;;
70740;Laerm;58330;51.888;11.052;2023-08-06T12:43:31;5.00;5.00;5.00;;
70740;Laerm;58330;51.888;11.052;2023-08-06T12:45:59;5.00;5.00;5.00;;
70740;Laerm;58330;51.888;11.052;2023-08-06T12:48:25;5.00;5.00;5.00;;
70740;Laerm;58330;51.888;11.052;2023-08-06T12:50:51;5.00;5.00;5.00;;
70740;Laerm;58330;51.888;11.052;2023-08-06T12:53:17;5.00;5.00;5.00;;
70740;Laerm;58330;51.888;11.052;2023-08-06T12:55:46;5.00;5.00;5.00;;
70740;Laerm;58330;51.888;11.052;2023-08-06T12:58:12;5.00;5.00;5.00;;
70740;Laerm;58330;51.888;11.052;2023-08-06T13:00:38;5.00;5.00;5.00;;
70740;Laerm;58330;51.888;11.052;2023-08-06T13:03:06;5.00;5.00;5.00;;
70740;Laerm;58330;51.888;11.052;2023-08-06T13:05:32;5.00;5.00;5.00;;
70740;Laerm;58330;51.888;11.052;2023-08-06T13:07:59;5.00;5.00;5.00;;
70740;Laerm;58330;51.888;11.052;2023-08-06T13:10:25;5.00;5.00;5.00;;
70740;Laerm;58330;51.888;11.052;2023-08-06T13:12:52;5.00;5.00;5.00;;
70740;Laerm;58330;51.888;11.052;2023-08-06T13:15:18;5.00;5.00;5.00;;
70740;Laerm;58330;51.888;11.052;2023-08-06T13:17:46;5.00;5.00;5.00;;
70740;Laerm;58330;51.888;11.052;2023-08-06T13:20:14;5.00;5.00;5.00;;
70740;Laerm;58330;51.888;11.052;2023-08-06T13:22:40;5.00;5.00;5.00;;
70740;Laerm;58330;51.888;11.052;2023-08-06T13:25:07;5.00;5.00;5.00;;
70740;Laerm;58330;51.888;11.052;2023-08-06T13:27:33;5.00;5.00;5.00;;
70740;Laerm;58330;51.888;11.052;2023-08-06T13:29:59;5.00;5.00;5.00;;
70740;Laerm;58330;51.888;11.052;2023-08-06T13:32:26;5.00;5.00;5.00;;
70740;Laerm;58330;51.888;11.052;2023-08-06T13:34:53;5.00;5.00;5.00;;
70740;Laerm;58330;51.888;11.052;2023-08-06T13:37:20;5.00;5.00;5.00;;
70740;Laerm;58330;51.888;11.052;2023-08-06T13:39:47;5.00;5.00;5.00;;
70740;Laerm;58330;51.888;11.052;2023-08-06T13:42:13;5.00;5.00;5.00;;